createdAt,value
2023-05-14T00:02:09.885Z,12.30
2023-05-14T00:04:36.634Z,12.30
2023-05-14T00:07:03.984Z,12.30
2023-05-14T00:09:32.171Z,12.20
2023-05-14T00:11:59.139Z,12.10
2023-05-14T00:14:25.855Z,12.10
2023-05-14T00:16:53.134Z,12.10
2023-05-14T00:19:19.776Z,12.10
2023-05-14T00:21:48.230Z,12.00
2023-05-14T00:24:15.128Z,12.00
2023-05-14T00:26:42.434Z,11.90
2023-05-14T00:29:09.579Z,11.90
2023-05-14T00:31:37.180Z,11.90
2023-05-14T00:34:04.511Z,11.80
2023-05-14T00:36:31.919Z,11.70
2023-05-14T00:38:58.606Z,11.60
2023-05-14T00:41:25.843Z,11.60
2023-05-14T00:43:53.303Z,11.40
2023-05-14T00:46:20.317Z,11.40
2023-05-14T00:48:48.536Z,11.40
2023-05-14T00:51:16.300Z,11.30
2023-05-14T00:53:43.775Z,11.30
2023-05-14T00:56:10.825Z,11.20
2023-05-14T00:58:38.413Z,11.10
2023-05-14T01:01:05.207Z,11.10
2023-05-14T01:03:33.659Z,11.00
2023-05-14T01:06:06.059Z,11.00
2023-05-14T01:08:57.903Z,11.00
2023-05-14T01:11:30.243Z,11.00
2023-05-14T01:14:21.149Z,11.00
2023-05-14T01:16:51.059Z,11.00
2023-05-14T01:19:35.546Z,11.00
2023-05-14T01:22:02.934Z,11.10
2023-05-14T01:24:29.679Z,11.10
2023-05-14T01:27:23.580Z,11.10
2023-05-14T01:30:11.322Z,11.00
2023-05-14T01:32:40.732Z,11.00
2023-05-14T01:35:09.447Z,11.00
2023-05-14T01:37:38.035Z,10.90
2023-05-14T01:40:06.352Z,10.90
2023-05-14T01:42:33.674Z,10.90
2023-05-14T01:45:00.699Z,10.90
2023-05-14T01:47:27.774Z,10.80
2023-05-14T01:49:54.997Z,10.80
2023-05-14T01:52:21.740Z,10.80
2023-05-14T01:54:49.184Z,10.70
2023-05-14T01:57:15.821Z,10.70
2023-05-14T01:59:43.188Z,10.60
2023-05-14T02:02:09.808Z,10.60
2023-05-14T02:04:37.244Z,10.50
2023-05-14T02:07:03.981Z,10.50
2023-05-14T02:09:31.242Z,10.40
2023-05-14T02:11:58.140Z,10.30
2023-05-14T02:14:25.846Z,10.30
2023-05-14T02:16:52.530Z,10.20
2023-05-14T02:19:19.851Z,10.10
2023-05-14T02:21:46.835Z,10.00
2023-05-14T02:24:14.164Z,10.00
2023-05-14T02:26:41.048Z,10.00
2023-05-14T02:29:08.660Z,10.00
2023-05-14T02:31:35.549Z,9.90
2023-05-14T02:34:06.928Z,9.90
2023-05-14T02:36:33.638Z,9.90
2023-05-14T02:39:04.861Z,9.80
2023-05-14T02:41:31.513Z,9.80
2023-05-14T02:43:58.779Z,9.80
2023-05-14T02:46:25.809Z,9.80
2023-05-14T02:48:53.061Z,9.70
2023-05-14T02:51:21.055Z,9.80
2023-05-14T02:53:48.375Z,9.70
2023-05-14T02:56:15.009Z,9.60
2023-05-14T02:58:42.438Z,9.60
2023-05-14T03:01:09.208Z,9.60
2023-05-14T03:03:38.429Z,9.60
2023-05-14T03:06:05.773Z,9.60
2023-05-14T03:08:32.974Z,9.50
2023-05-14T03:10:59.621Z,9.50
2023-05-14T03:13:26.846Z,9.50
2023-05-14T03:15:55.050Z,9.50
2023-05-14T03:18:22.735Z,9.50
2023-05-14T03:20:49.389Z,9.50
2023-05-14T03:23:16.958Z,9.40
2023-05-14T03:25:43.541Z,9.40
2023-05-14T03:28:10.788Z,9.40
2023-05-14T03:30:37.506Z,9.40
2023-05-14T03:33:04.997Z,9.40
2023-05-14T03:35:31.677Z,9.40
2023-05-14T03:37:59.490Z,9.40
2023-05-14T03:40:26.768Z,9.30
2023-05-14T03:42:54.057Z,9.30
2023-05-14T03:45:20.909Z,9.30
2023-05-14T03:47:48.340Z,9.30
2023-05-14T03:50:15.134Z,9.30
2023-05-14T03:52:42.519Z,9.20
2023-05-14T03:55:09.727Z,9.20
2023-05-14T03:57:37.066Z,9.20
2023-05-14T04:00:07.521Z,9.20
2023-05-14T04:02:43.756Z,9.20
2023-05-14T04:05:10.774Z,9.20
2023-05-14T04:07:38.158Z,9.30
2023-05-14T04:10:05.578Z,9.30
2023-05-14T04:12:35.344Z,9.30
2023-05-14T04:15:02.660Z,9.40
2023-05-14T04:17:29.997Z,9.40
2023-05-14T04:19:56.764Z,9.50
2023-05-14T04:22:24.525Z,9.50
2023-05-14T04:24:51.572Z,9.60
2023-05-14T04:27:22.343Z,9.60
2023-05-14T04:29:51.707Z,9.70
2023-05-14T04:32:19.134Z,9.70
2023-05-14T04:34:47.127Z,9.70
2023-05-14T04:37:14.452Z,9.80
2023-05-14T04:39:41.115Z,9.80
2023-05-14T04:42:08.654Z,9.90
2023-05-14T04:44:36.129Z,10.00
2023-05-14T04:47:04.020Z,10.00
2023-05-14T04:49:31.256Z,10.10
2023-05-14T04:51:58.667Z,10.10
2023-05-14T04:54:25.397Z,10.20
2023-05-14T04:56:52.338Z,10.20
2023-05-14T04:59:19.655Z,10.30
2023-05-14T05:01:46.479Z,10.40
2023-05-14T05:04:13.835Z,10.40
2023-05-14T05:06:40.607Z,10.60
2023-05-14T05:09:09.052Z,10.70
2023-05-14T05:11:36.254Z,10.80
2023-05-14T05:14:02.852Z,10.90
2023-05-14T05:16:29.884Z,11.30
2023-05-14T05:18:57.392Z,12.80
2023-05-14T05:21:24.824Z,14.90
2023-05-14T05:23:52.128Z,16.80
2023-05-14T05:26:18.725Z,18.30
2023-05-14T05:28:45.918Z,19.30
2023-05-14T05:31:12.977Z,20.50
2023-05-14T05:33:40.429Z,21.60
2023-05-14T05:36:07.265Z,22.30
2023-05-14T05:38:34.488Z,22.60
2023-05-14T05:41:01.444Z,22.90
2023-05-14T05:43:30.910Z,23.00
2023-05-14T05:45:58.188Z,23.00
2023-05-14T05:48:24.823Z,23.10
2023-05-14T05:50:52.106Z,23.60
2023-05-14T05:53:18.777Z,23.70
2023-05-14T05:55:46.307Z,24.30
2023-05-14T05:58:15.634Z,24.50
2023-05-14T06:00:42.906Z,25.00
2023-05-14T06:03:09.537Z,25.30
2023-05-14T06:05:37.070Z,25.30
2023-05-14T06:08:04.233Z,25.70
2023-05-14T06:10:31.601Z,26.10
2023-05-14T06:12:58.222Z,25.90
2023-05-14T06:15:25.226Z,26.60
2023-05-14T06:17:52.577Z,27.30
2023-05-14T06:20:19.496Z,27.50
2023-05-14T06:22:46.712Z,27.50
2023-05-14T06:25:13.318Z,27.20
2023-05-14T06:27:40.677Z,27.50
2023-05-14T06:30:07.856Z,27.40
2023-05-14T06:32:35.367Z,27.40
2023-05-14T06:35:04.780Z,27.40
2023-05-14T06:37:32.145Z,26.80
2023-05-14T06:39:58.757Z,27.40
2023-05-14T06:42:26.717Z,27.50
2023-05-14T06:44:53.459Z,28.00
2023-05-14T06:47:21.043Z,28.50
2023-05-14T06:49:47.700Z,29.00
2023-05-14T06:52:14.892Z,28.80
2023-05-14T06:54:41.504Z,29.10
2023-05-14T06:57:08.776Z,29.00
2023-05-14T06:59:35.798Z,28.50
2023-05-14T07:02:03.572Z,28.60
2023-05-14T07:04:30.268Z,29.30
2023-05-14T07:06:57.486Z,29.30
2023-05-14T07:09:24.217Z,29.00
2023-05-14T07:11:51.463Z,28.80
2023-05-14T07:14:18.100Z,29.30
2023-05-14T07:16:47.140Z,29.70
2023-05-14T07:19:13.939Z,29.80
2023-05-14T07:21:41.591Z,29.40
2023-05-14T07:24:08.754Z,28.80
2023-05-14T07:26:36.143Z,28.70
2023-05-14T07:29:02.934Z,28.80
2023-05-14T07:31:30.239Z,28.50
2023-05-14T07:33:57.176Z,26.90
2023-05-14T07:36:25.224Z,26.80
2023-05-14T07:38:51.906Z,27.30
2023-05-14T07:41:19.243Z,27.80
2023-05-14T07:43:46.061Z,27.90
2023-05-14T07:46:14.972Z,27.70
2023-05-14T07:48:45.377Z,27.80
2023-05-14T07:51:14.604Z,27.80
2023-05-14T07:53:41.649Z,27.50
2023-05-14T07:56:10.568Z,27.70
2023-05-14T07:58:41.162Z,27.40
2023-05-14T08:01:09.368Z,26.70
2023-05-14T08:03:36.135Z,26.60
2023-05-14T08:06:04.136Z,26.60
2023-05-14T08:08:30.819Z,26.40
2023-05-14T08:10:58.112Z,26.20
2023-05-14T08:13:24.761Z,25.60
2023-05-14T08:15:52.653Z,25.70
2023-05-14T08:18:19.281Z,25.00
2023-05-14T08:20:47.248Z,24.50
2023-05-14T08:23:14.450Z,24.00
2023-05-14T08:25:41.461Z,23.40
2023-05-14T08:28:08.165Z,22.60
2023-05-14T08:30:35.633Z,22.70
2023-05-14T08:33:02.406Z,22.10
2023-05-14T08:35:29.923Z,21.50
2023-05-14T08:37:57.022Z,21.80
2023-05-14T08:40:24.300Z,22.20
2023-05-14T08:42:51.543Z,22.80
2023-05-14T08:45:27.505Z,22.80
2023-05-14T08:47:56.444Z,22.10
2023-05-14T08:50:24.997Z,22.30
2023-05-14T08:52:52.731Z,22.10
2023-05-14T08:55:20.280Z,22.30
2023-05-14T08:57:46.964Z,22.30
2023-05-14T09:00:15.717Z,21.90
2023-05-14T09:02:45.497Z,21.60
2023-05-14T09:05:13.114Z,21.40
2023-05-14T09:07:39.769Z,21.60
2023-05-14T09:10:09.351Z,21.60
2023-05-14T09:12:36.094Z,21.30
2023-05-14T09:15:03.716Z,21.30
2023-05-14T09:17:30.583Z,21.50
2023-05-14T09:19:58.818Z,21.80
2023-05-14T09:22:29.034Z,22.00
2023-05-14T09:25:09.634Z,21.90
2023-05-14T09:27:36.545Z,21.20
2023-05-14T09:30:11.634Z,21.00
2023-05-14T09:32:40.159Z,21.00
2023-05-14T09:35:22.167Z,21.30
2023-05-14T09:37:51.779Z,21.60
2023-05-14T09:40:20.387Z,21.70
2023-05-14T09:42:50.459Z,21.90
2023-05-14T09:45:18.306Z,21.80
2023-05-14T09:47:45.704Z,21.70
2023-05-14T09:50:13.400Z,21.90
2023-05-14T09:52:40.240Z,21.90
2023-05-14T09:55:08.240Z,22.00
2023-05-14T09:57:35.308Z,22.20
2023-05-14T10:00:02.783Z,22.30
2023-05-14T10:02:40.955Z,22.40
2023-05-14T10:05:08.626Z,22.60
2023-05-14T10:07:47.807Z,23.00
2023-05-14T10:10:28.505Z,23.00
2023-05-14T10:13:06.427Z,23.10
2023-05-14T10:15:38.833Z,23.10
2023-05-14T10:18:13.369Z,23.20
2023-05-14T10:20:41.436Z,23.20
2023-05-14T10:23:08.038Z,23.10
2023-05-14T10:25:37.690Z,23.00
2023-05-14T10:28:05.954Z,23.00
2023-05-14T10:30:33.334Z,23.00
2023-05-14T10:33:11.974Z,23.00
2023-05-14T10:35:52.636Z,23.10
2023-05-14T10:38:23.076Z,23.20
2023-05-14T10:40:52.816Z,23.40
2023-05-14T10:43:22.394Z,23.50
2023-05-14T10:45:49.359Z,23.80
2023-05-14T10:48:16.177Z,24.00
2023-05-14T10:50:43.883Z,24.00
2023-05-14T10:53:14.026Z,24.10
2023-05-14T10:55:43.269Z,24.00
2023-05-14T10:58:13.008Z,24.00
2023-05-14T11:00:41.277Z,23.90
2023-05-14T11:03:08.120Z,23.60
2023-05-14T11:05:37.463Z,23.70
2023-05-14T11:08:07.998Z,23.70
2023-05-14T11:10:35.846Z,23.80
2023-05-14T11:13:02.703Z,23.90
2023-05-14T11:15:30.089Z,24.10
2023-05-14T11:17:56.821Z,24.10
2023-05-14T11:20:24.345Z,24.20
2023-05-14T11:22:53.816Z,24.40
2023-05-14T11:25:22.968Z,24.50
2023-05-14T11:27:50.256Z,24.60
2023-05-14T11:30:19.211Z,24.50
2023-05-14T11:32:48.991Z,24.20
2023-05-14T11:35:17.213Z,23.80
2023-05-14T11:37:49.473Z,23.40
2023-05-14T11:40:17.184Z,23.00
2023-05-14T11:42:44.204Z,22.70
2023-05-14T11:45:13.213Z,22.50
2023-05-14T11:47:41.679Z,22.30
2023-05-14T11:50:09.944Z,21.90
2023-05-14T11:52:41.326Z,22.00
2023-05-14T11:55:12.908Z,22.10
2023-05-14T11:57:40.753Z,22.20
2023-05-14T12:00:16.957Z,22.20
2023-05-14T12:02:43.784Z,22.10
2023-05-14T12:05:13.659Z,22.50
2023-05-14T12:07:41.768Z,23.10
2023-05-14T12:10:12.244Z,23.60
2023-05-14T12:12:38.888Z,24.00
2023-05-14T12:15:17.202Z,24.20
2023-05-14T12:17:50.439Z,24.60
2023-05-14T12:20:18.568Z,24.50
2023-05-14T12:22:45.235Z,24.20
2023-05-14T12:25:16.365Z,24.20
2023-05-14T12:27:45.413Z,24.10
2023-05-14T12:30:21.435Z,23.60
2023-05-14T12:32:51.488Z,23.30
2023-05-14T12:35:19.508Z,23.00
2023-05-14T12:37:46.320Z,23.00
2023-05-14T12:40:13.549Z,23.00
2023-05-14T12:42:41.057Z,23.30
2023-05-14T12:45:08.460Z,23.60
2023-05-14T12:47:37.311Z,24.00
2023-05-14T12:50:05.802Z,24.00
2023-05-14T12:52:38.411Z,24.30
2023-05-14T12:55:07.050Z,23.90
2023-05-14T12:57:35.765Z,23.30
2023-05-14T13:00:06.404Z,23.20
2023-05-14T13:02:42.696Z,23.20
2023-05-14T13:05:12.330Z,23.40
2023-05-14T13:07:39.154Z,23.60
2023-05-14T13:10:06.741Z,23.60
2023-05-14T13:12:34.363Z,23.80
2023-05-14T13:15:01.056Z,24.00
2023-05-14T13:17:28.433Z,24.20
2023-05-14T13:19:55.424Z,24.30
2023-05-14T13:22:22.743Z,24.50
2023-05-14T13:24:49.317Z,24.30
2023-05-14T13:27:16.522Z,24.30
2023-05-14T13:29:43.168Z,24.10
2023-05-14T13:32:10.539Z,24.00
2023-05-14T13:34:37.390Z,23.80
2023-05-14T13:37:04.898Z,23.60
2023-05-14T13:39:31.521Z,23.70
2023-05-14T13:41:59.015Z,23.80
2023-05-14T13:44:25.785Z,23.70
2023-05-14T13:46:53.455Z,23.80
2023-05-14T13:49:20.196Z,23.90
2023-05-14T13:51:47.549Z,23.90
2023-05-14T13:54:14.172Z,24.00
2023-05-14T13:56:41.546Z,23.90
2023-05-14T13:59:08.272Z,23.80
2023-05-14T14:01:35.691Z,23.60
2023-05-14T14:04:03.124Z,23.50
2023-05-14T14:06:32.650Z,23.50
2023-05-14T14:08:59.347Z,23.50
2023-05-14T14:11:27.279Z,23.60
2023-05-14T14:13:54.304Z,23.60
2023-05-14T14:16:21.596Z,23.60
2023-05-14T14:18:48.453Z,23.50
2023-05-14T14:21:18.484Z,23.40
2023-05-14T14:23:48.748Z,23.40
2023-05-14T14:26:16.179Z,23.20
2023-05-14T14:28:43.099Z,23.00
2023-05-14T14:31:11.003Z,22.90
2023-05-14T14:33:37.640Z,22.70
2023-05-14T14:36:05.954Z,22.50
2023-05-14T14:38:32.588Z,22.50
2023-05-14T14:40:59.960Z,22.70
2023-05-14T14:43:26.563Z,22.70
2023-05-14T14:45:53.911Z,22.70
2023-05-14T14:48:24.903Z,22.60
2023-05-14T14:50:52.659Z,22.60
2023-05-14T14:53:23.072Z,22.60
2023-05-14T14:55:51.090Z,22.70
2023-05-14T14:58:19.318Z,22.60
2023-05-14T15:00:47.576Z,22.70
2023-05-14T15:03:15.327Z,22.70
2023-05-14T15:05:43.113Z,22.70
2023-05-14T15:08:10.132Z,22.60
2023-05-14T15:10:38.500Z,22.60
2023-05-14T15:13:06.114Z,22.60
2023-05-14T15:15:34.753Z,22.50
2023-05-14T15:18:02.497Z,22.60
2023-05-14T15:20:30.032Z,22.50
2023-05-14T15:22:56.877Z,22.40
2023-05-14T15:25:25.404Z,22.30
2023-05-14T15:27:52.164Z,22.20
2023-05-14T15:30:19.754Z,22.10
2023-05-14T15:32:46.740Z,22.10
2023-05-14T15:35:14.197Z,22.10
2023-05-14T15:37:45.158Z,22.10
2023-05-14T15:40:12.878Z,22.00
2023-05-14T15:42:44.064Z,21.90
2023-05-14T15:45:13.443Z,21.90
2023-05-14T15:47:41.403Z,22.00
2023-05-14T15:50:09.321Z,21.90
2023-05-14T15:52:36.407Z,22.00
2023-05-14T15:55:06.267Z,22.10
2023-05-14T15:57:33.197Z,22.10
2023-05-14T16:00:00.509Z,22.10
2023-05-14T16:02:30.154Z,22.10
2023-05-14T16:04:57.551Z,22.00
2023-05-14T16:07:24.391Z,22.10
2023-05-14T16:09:52.095Z,22.00
2023-05-14T16:12:18.763Z,22.00
2023-05-14T16:14:46.627Z,22.00
2023-05-14T16:17:13.556Z,22.00
2023-05-14T16:19:40.930Z,21.90
2023-05-14T16:22:07.618Z,21.80
2023-05-14T16:24:34.933Z,21.80
2023-05-14T16:27:01.646Z,21.80
2023-05-14T16:29:29.040Z,21.70
2023-05-14T16:31:55.665Z,21.60
2023-05-14T16:34:23.093Z,21.60
2023-05-14T16:36:49.746Z,21.60
2023-05-14T16:39:17.597Z,21.50
2023-05-14T16:41:44.185Z,21.50
2023-05-14T16:44:11.462Z,21.40
2023-05-14T16:46:38.334Z,21.40
2023-05-14T16:49:05.106Z,21.40
2023-05-14T16:51:31.726Z,21.20
2023-05-14T16:53:58.991Z,21.20
2023-05-14T16:56:26.454Z,21.10
2023-05-14T16:58:53.825Z,21.00
2023-05-14T17:01:20.578Z,20.90
2023-05-14T17:03:47.978Z,20.90
2023-05-14T17:06:14.646Z,20.90
2023-05-14T17:08:41.962Z,20.90
2023-05-14T17:11:08.576Z,20.80
2023-05-14T17:13:35.986Z,20.80
2023-05-14T17:16:02.798Z,20.70
2023-05-14T17:18:30.313Z,20.70
2023-05-14T17:20:57.068Z,20.70
2023-05-14T17:23:24.465Z,20.60
2023-05-14T17:25:51.218Z,20.60
2023-05-14T17:28:18.474Z,20.50
2023-05-14T17:30:45.194Z,20.40
2023-05-14T17:33:12.132Z,20.30
2023-05-14T17:35:39.019Z,20.20
2023-05-14T17:38:06.372Z,20.10
2023-05-14T17:40:33.384Z,20.10
2023-05-14T17:43:00.502Z,20.00
2023-05-14T17:45:27.812Z,19.90
2023-05-14T17:47:55.895Z,19.90
2023-05-14T17:50:22.604Z,19.80
2023-05-14T17:52:49.866Z,19.80
2023-05-14T17:55:17.369Z,19.80
2023-05-14T17:57:45.134Z,19.70
2023-05-14T18:00:12.537Z,19.80
2023-05-14T18:02:40.695Z,19.70
2023-05-14T18:05:07.686Z,19.70
2023-05-14T18:07:35.808Z,19.60
2023-05-14T18:10:02.780Z,19.50
2023-05-14T18:12:29.861Z,19.50
2023-05-14T18:14:56.509Z,19.40
2023-05-14T18:17:23.549Z,19.40
2023-05-14T18:19:50.513Z,19.30
2023-05-14T18:22:17.556Z,19.20
2023-05-14T18:24:45.496Z,19.10
2023-05-14T18:27:12.288Z,19.10
2023-05-14T18:29:39.634Z,19.10
2023-05-14T18:32:06.655Z,19.00
2023-05-14T18:34:33.917Z,19.00
2023-05-14T18:37:00.908Z,18.90
2023-05-14T18:39:28.311Z,18.80
2023-05-14T18:41:56.418Z,18.80
2023-05-14T18:44:24.013Z,18.70
2023-05-14T18:46:50.932Z,18.60
2023-05-14T18:49:18.001Z,18.50
2023-05-14T18:51:44.746Z,18.40
2023-05-14T18:54:12.075Z,18.30
2023-05-14T18:56:41.084Z,18.30
2023-05-14T18:59:09.466Z,18.20
2023-05-14T19:01:36.285Z,18.20
2023-05-14T19:04:05.390Z,18.10
2023-05-14T19:06:32.614Z,18.10
2023-05-14T19:09:00.173Z,18.00
2023-05-14T19:11:26.813Z,17.90
2023-05-14T19:13:53.752Z,17.80
2023-05-14T19:16:21.109Z,17.70
2023-05-14T19:18:48.288Z,17.70
2023-05-14T19:21:15.843Z,17.70
2023-05-14T19:23:42.541Z,17.60
2023-05-14T19:26:09.836Z,17.60
2023-05-14T19:28:38.667Z,17.50
2023-05-14T19:31:06.232Z,17.40
2023-05-14T19:33:32.938Z,17.40
2023-05-14T19:36:00.691Z,17.40
2023-05-14T19:38:27.479Z,17.30
2023-05-14T19:40:57.069Z,17.30
2023-05-14T19:43:25.491Z,17.30
2023-05-14T19:45:52.237Z,17.20
2023-05-14T19:48:19.193Z,17.10
2023-05-14T19:50:47.423Z,17.10
2023-05-14T19:53:14.451Z,17.00
2023-05-14T19:55:42.001Z,16.90
2023-05-14T19:58:09.153Z,16.90
2023-05-14T20:00:37.229Z,16.80
2023-05-14T20:03:05.651Z,16.70
2023-05-14T20:05:34.385Z,16.70
2023-05-14T20:08:01.095Z,16.70
2023-05-14T20:10:28.367Z,16.70
2023-05-14T20:12:55.293Z,16.70
2023-05-14T20:15:22.249Z,16.70
2023-05-14T20:17:48.992Z,16.70
2023-05-14T20:20:16.872Z,16.70
2023-05-14T20:22:43.972Z,16.70
2023-05-14T20:25:11.330Z,16.60
2023-05-14T20:27:38.058Z,16.60
2023-05-14T20:30:06.009Z,16.60
2023-05-14T20:32:33.018Z,16.60
2023-05-14T20:35:02.044Z,16.60
2023-05-14T20:37:30.613Z,16.60
2023-05-14T20:39:57.509Z,16.50
2023-05-14T20:42:25.724Z,16.50
2023-05-14T20:44:53.289Z,16.50
2023-05-14T20:47:24.611Z,16.40
2023-05-14T20:49:51.332Z,16.40
2023-05-14T20:52:19.043Z,16.30
2023-05-14T20:54:46.089Z,16.30
2023-05-14T20:57:16.198Z,16.30
2023-05-14T20:59:43.081Z,16.20
2023-05-14T21:02:10.416Z,16.20
2023-05-14T21:04:37.619Z,16.10
2023-05-14T21:07:06.314Z,16.10
2023-05-14T21:09:32.972Z,16.10
2023-05-14T21:12:00.568Z,16.00
2023-05-14T21:14:27.257Z,16.00
2023-05-14T21:16:54.577Z,15.90
2023-05-14T21:19:23.106Z,15.90
2023-05-14T21:21:50.599Z,15.90
2023-05-14T21:24:17.208Z,15.80
2023-05-14T21:26:44.552Z,15.80
2023-05-14T21:29:11.331Z,15.80
2023-05-14T21:31:38.608Z,15.70
2023-05-14T21:34:05.629Z,15.70
2023-05-14T21:36:33.105Z,15.60
2023-05-14T21:38:59.730Z,15.60
2023-05-14T21:41:27.248Z,15.50
2023-05-14T21:43:53.899Z,15.50
2023-05-14T21:46:21.332Z,15.50
2023-05-14T21:48:48.045Z,15.40
2023-05-14T21:51:15.475Z,15.40
2023-05-14T21:53:42.216Z,15.30
2023-05-14T21:56:09.495Z,15.30
2023-05-14T21:58:36.120Z,15.20
2023-05-14T22:01:03.397Z,15.20
2023-05-14T22:03:30.281Z,15.10
2023-05-14T22:05:57.763Z,15.10
2023-05-14T22:08:24.422Z,15.00
2023-05-14T22:10:51.631Z,15.00
2023-05-14T22:13:18.265Z,14.90
2023-05-14T22:15:45.772Z,14.90
2023-05-14T22:18:12.738Z,14.80
2023-05-14T22:20:40.290Z,14.80
2023-05-14T22:23:07.097Z,14.80
2023-05-14T22:25:34.514Z,14.70
2023-05-14T22:28:01.141Z,14.70
2023-05-14T22:30:28.394Z,14.70
2023-05-14T22:32:55.236Z,14.60
2023-05-14T22:35:22.708Z,14.60
2023-05-14T22:37:49.540Z,14.60
2023-05-14T22:40:16.893Z,14.60
2023-05-14T22:42:43.576Z,14.50
2023-05-14T22:45:11.222Z,14.50
2023-05-14T22:47:38.477Z,14.40
2023-05-14T22:50:11.400Z,14.30
2023-05-14T22:52:39.300Z,14.30
2023-05-14T22:55:07.119Z,14.20
2023-05-14T22:57:34.197Z,14.20
2023-05-14T23:00:01.620Z,14.10
2023-05-14T23:02:28.282Z,14.10
2023-05-14T23:04:55.869Z,14.10
2023-05-14T23:07:22.691Z,14.00
2023-05-14T23:09:49.986Z,14.00
2023-05-14T23:12:16.665Z,14.00
2023-05-14T23:14:43.947Z,13.90
2023-05-14T23:17:10.578Z,13.90
2023-05-14T23:19:37.875Z,13.90
2023-05-14T23:22:04.742Z,13.90
2023-05-14T23:24:31.984Z,13.80
2023-05-14T23:26:58.653Z,13.80
2023-05-14T23:29:25.862Z,13.80
2023-05-14T23:31:52.564Z,13.70
2023-05-14T23:34:19.848Z,13.70
2023-05-14T23:36:46.571Z,13.70
2023-05-14T23:39:13.585Z,13.60
2023-05-14T23:41:40.333Z,13.60
2023-05-14T23:44:07.517Z,13.50
2023-05-14T23:46:34.262Z,13.50
2023-05-14T23:49:01.489Z,13.50
2023-05-14T23:51:28.167Z,13.40
2023-05-14T23:53:58.721Z,13.40
2023-05-14T23:56:27.205Z,13.30
2023-05-14T23:58:54.809Z,13.30
